createdAt,value
2023-01-02T00:02:27.686Z,11.99
2023-01-02T00:04:56.100Z,11.93
2023-01-02T00:07:24.470Z,11.69
2023-01-02T00:09:52.876Z,11.43
2023-01-02T00:12:24.410Z,11.89
2023-01-02T00:14:55.046Z,12.14
2023-01-02T00:17:22.991Z,12.04
2023-01-02T00:19:50.943Z,11.88
2023-01-02T00:22:18.996Z,12.10
2023-01-02T00:24:46.865Z,11.41
2023-01-02T00:27:15.592Z,11.96
2023-01-02T00:29:45.190Z,11.25
2023-01-02T00:32:13.349Z,12.03
2023-01-02T00:34:41.501Z,11.99
2023-01-02T00:37:09.840Z,11.91
2023-01-02T00:39:37.780Z,12.03
2023-01-02T00:42:06.350Z,11.99
2023-01-02T00:44:34.327Z,11.95
2023-01-02T00:47:05.748Z,11.53
2023-01-02T00:49:33.809Z,11.96
2023-01-02T00:52:03.780Z,11.97
2023-01-02T00:54:37.960Z,11.82
2023-01-02T00:57:07.174Z,12.06
2023-01-02T00:59:40.261Z,11.97
2023-01-02T01:02:11.132Z,12.01
2023-01-02T01:04:39.685Z,12.15
2023-01-02T01:07:07.975Z,11.77
2023-01-02T01:09:36.013Z,12.08
2023-01-02T01:12:07.031Z,12.20
2023-01-02T01:14:35.049Z,12.17
2023-01-02T01:17:02.927Z,11.95
2023-01-02T01:19:33.566Z,12.12
2023-01-02T01:22:07.513Z,12.07
2023-01-02T01:24:35.558Z,12.12
2023-01-02T01:27:03.442Z,12.19
2023-01-02T01:29:31.374Z,12.24
2023-01-02T01:31:59.920Z,12.19
2023-01-02T01:34:28.590Z,12.27
2023-01-02T01:37:00.679Z,12.15
2023-01-02T01:39:28.911Z,12.30
2023-01-02T01:41:56.992Z,12.31
2023-01-02T01:44:50.521Z,12.28
2023-01-02T01:47:26.134Z,11.68
2023-01-02T01:50:05.145Z,12.21
2023-01-02T01:52:39.528Z,12.28
2023-01-02T01:55:13.623Z,12.22
2023-01-02T01:57:46.049Z,12.19
2023-01-02T02:00:15.126Z,12.38
2023-01-02T02:02:47.263Z,12.43
2023-01-02T02:05:23.492Z,12.41
2023-01-02T02:08:03.297Z,12.45
2023-01-02T02:10:33.351Z,11.19
2023-01-02T02:13:01.197Z,12.41
2023-01-02T02:15:45.981Z,12.53
2023-01-02T02:18:28.633Z,12.49
2023-01-02T02:21:02.113Z,12.45
2023-01-02T02:24:02.701Z,12.23
2023-01-02T02:27:01.617Z,12.53
2023-01-02T02:30:18.784Z,12.62
2023-01-02T02:33:21.291Z,12.67
2023-01-02T02:36:04.455Z,12.38
2023-01-02T02:38:58.240Z,12.63
2023-01-02T02:41:34.806Z,12.01
2023-01-02T02:44:14.086Z,12.50
2023-01-02T02:46:53.214Z,12.48
2023-01-02T02:49:35.969Z,12.15
2023-01-02T02:52:13.758Z,12.39
2023-01-02T02:54:46.898Z,12.39
2023-01-02T02:57:16.790Z,12.28
2023-01-02T02:59:47.939Z,11.82
2023-01-02T03:02:18.021Z,12.27
2023-01-02T03:04:51.375Z,12.45
2023-01-02T03:07:39.057Z,12.52
2023-01-02T03:10:21.675Z,12.42
2023-01-02T03:12:54.238Z,12.49
2023-01-02T03:15:29.367Z,12.52
2023-01-02T03:18:09.941Z,12.04
2023-01-02T03:20:44.272Z,12.04
2023-01-02T03:23:16.391Z,12.52
2023-01-02T03:25:45.680Z,12.58
2023-01-02T03:28:19.755Z,12.32
2023-01-02T03:30:51.844Z,12.41
2023-01-02T03:33:25.432Z,12.47
2023-01-02T03:35:58.079Z,12.39
2023-01-02T03:38:30.295Z,12.48
2023-01-02T03:41:04.491Z,12.53
2023-01-02T03:43:38.255Z,12.54
2023-01-02T03:46:13.850Z,12.40
2023-01-02T03:48:47.097Z,12.56
2023-01-02T03:51:16.662Z,12.47
2023-01-02T03:53:47.217Z,12.40
2023-01-02T03:56:24.330Z,12.47
2023-01-02T03:59:05.692Z,12.43
2023-01-02T04:01:41.183Z,12.42
2023-01-02T04:04:17.115Z,12.46
2023-01-02T04:06:52.669Z,12.02
2023-01-02T04:09:24.067Z,12.34
2023-01-02T04:11:59.400Z,12.56
2023-01-02T04:14:35.603Z,12.55
2023-01-02T04:17:08.044Z,12.12
2023-01-02T04:19:41.779Z,12.63
2023-01-02T04:22:18.259Z,12.61
2023-01-02T04:24:51.922Z,12.66
2023-01-02T04:27:26.976Z,12.73
2023-01-02T04:29:55.852Z,12.79
2023-01-02T04:32:29.104Z,12.65
2023-01-02T04:35:07.193Z,12.77
2023-01-02T04:37:41.566Z,12.50
2023-01-02T04:40:16.207Z,12.51
2023-01-02T04:42:47.596Z,12.55
2023-01-02T04:45:17.820Z,12.44
2023-01-02T04:47:48.770Z,12.56
2023-01-02T04:50:17.452Z,12.34
2023-01-02T04:52:46.832Z,12.53
2023-01-02T04:55:14.882Z,12.57
2023-01-02T04:57:43.956Z,12.43
2023-01-02T05:00:12.807Z,12.51
2023-01-02T05:02:41.575Z,11.95
2023-01-02T05:05:10.586Z,12.65
2023-01-02T05:07:41.542Z,12.64
2023-01-02T05:10:13.272Z,12.68
2023-01-02T05:12:44.173Z,12.63
2023-01-02T05:15:13.270Z,12.69
2023-01-02T05:17:42.302Z,12.51
2023-01-02T05:20:13.156Z,12.70
2023-01-02T05:23:02.449Z,12.66
2023-01-02T05:25:33.707Z,12.53
2023-01-02T05:28:03.149Z,12.79
2023-01-02T05:30:31.701Z,12.72
2023-01-02T05:32:59.656Z,12.85
2023-01-02T05:35:33.095Z,12.86
2023-01-02T05:38:02.136Z,12.85
2023-01-02T05:40:31.614Z,12.81
2023-01-02T05:43:00.379Z,12.87
2023-01-02T05:45:28.417Z,12.86
2023-01-02T05:47:56.335Z,12.73
2023-01-02T05:50:24.499Z,12.68
2023-01-02T05:52:52.458Z,12.03
2023-01-02T05:55:20.587Z,12.57
2023-01-02T05:57:50.054Z,12.50
2023-01-02T06:00:18.739Z,12.31
2023-01-02T06:02:48.522Z,12.19
2023-01-02T06:05:19.445Z,12.32
2023-01-02T06:07:47.419Z,12.19
2023-01-02T06:10:15.911Z,12.20
2023-01-02T06:12:45.775Z,12.21
2023-01-02T06:15:15.270Z,12.04
2023-01-02T06:17:45.222Z,12.11
2023-01-02T06:20:16.415Z,12.09
2023-01-02T06:22:47.253Z,12.04
2023-01-02T06:25:16.681Z,12.07
2023-01-02T06:27:45.123Z,12.05
2023-01-02T06:30:17.400Z,12.00
2023-01-02T06:32:45.337Z,12.09
2023-01-02T06:35:14.493Z,11.49
2023-01-02T06:37:44.094Z,12.04
2023-01-02T06:40:12.410Z,12.04
2023-01-02T06:42:43.312Z,11.92
2023-01-02T06:45:12.544Z,11.76
2023-01-02T06:47:42.475Z,12.03
2023-01-02T06:50:11.407Z,12.09
2023-01-02T06:52:39.477Z,12.19
2023-01-02T06:55:08.017Z,12.22
2023-01-02T06:57:36.044Z,12.03
2023-01-02T07:00:06.115Z,12.29
2023-01-02T07:02:34.308Z,12.21
2023-01-02T07:05:06.931Z,12.33
2023-01-02T07:07:37.943Z,12.21
2023-01-02T07:10:06.776Z,12.32
2023-01-02T07:12:37.650Z,12.29
2023-01-02T07:15:06.727Z,12.32
2023-01-02T07:17:37.439Z,12.34
2023-01-02T07:20:09.736Z,12.32
2023-01-02T07:22:37.711Z,12.33
2023-01-02T07:25:06.444Z,12.42
2023-01-02T07:27:34.875Z,12.45
2023-01-02T07:30:02.825Z,12.42
2023-01-02T07:32:30.930Z,12.36
2023-01-02T07:34:58.946Z,12.30
2023-01-02T07:37:28.379Z,12.39
2023-01-02T07:39:56.478Z,12.25
2023-01-02T07:42:24.843Z,11.64
2023-01-02T07:44:52.911Z,12.38
2023-01-02T07:47:20.889Z,12.42
2023-01-02T07:49:49.142Z,12.39
2023-01-02T07:52:17.410Z,12.37
2023-01-02T07:54:46.960Z,12.29
2023-01-02T07:57:14.955Z,12.47
2023-01-02T07:59:45.142Z,12.55
2023-01-02T08:02:13.642Z,12.75
2023-01-02T08:04:41.870Z,12.75
2023-01-02T08:07:11.304Z,12.71
2023-01-02T08:09:39.322Z,12.75
2023-01-02T08:12:08.773Z,12.97
2023-01-02T08:14:37.353Z,13.15
2023-01-02T08:17:07.992Z,13.16
2023-01-02T08:19:36.191Z,13.18
2023-01-02T08:22:04.407Z,13.18
2023-01-02T08:24:32.712Z,13.19
2023-01-02T08:27:00.604Z,13.22
2023-01-02T08:29:31.706Z,13.30
2023-01-02T08:32:00.330Z,13.32
2023-01-02T08:34:28.590Z,13.46
2023-01-02T08:36:56.673Z,13.58
2023-01-02T08:39:27.745Z,13.42
2023-01-02T08:41:55.750Z,13.36
2023-01-02T08:44:23.735Z,13.38
2023-01-02T08:46:53.064Z,13.47
2023-01-02T08:49:21.406Z,13.58
2023-01-02T08:51:49.454Z,13.61
2023-01-02T08:54:17.568Z,13.53
2023-01-02T08:56:46.419Z,13.65
2023-01-02T08:59:14.380Z,13.71
2023-01-02T09:01:43.096Z,13.56
2023-01-02T09:04:13.432Z,13.25
2023-01-02T09:06:43.014Z,13.64
2023-01-02T09:09:12.911Z,13.53
2023-01-02T09:11:45.232Z,13.58
2023-01-02T09:14:15.272Z,13.57
2023-01-02T09:16:46.412Z,13.29
2023-01-02T09:19:16.023Z,13.59
2023-01-02T09:21:47.228Z,13.62
2023-01-02T09:24:15.252Z,13.71
2023-01-02T09:26:43.650Z,13.67
2023-01-02T09:29:12.581Z,13.69
2023-01-02T09:31:41.301Z,13.57
2023-01-02T09:34:09.281Z,13.60
2023-01-02T09:36:39.022Z,13.44
2023-01-02T09:39:07.365Z,13.76
2023-01-02T09:41:38.594Z,13.78
2023-01-02T09:44:12.432Z,13.70
2023-01-02T09:46:45.655Z,13.62
2023-01-02T09:49:23.167Z,13.44
2023-01-02T09:51:52.674Z,13.51
2023-01-02T09:54:26.000Z,13.46
2023-01-02T09:57:04.492Z,13.28
2023-01-02T09:59:34.918Z,13.50
2023-01-02T10:02:18.839Z,13.28
2023-01-02T10:05:01.199Z,13.44
2023-01-02T10:07:37.972Z,13.26
2023-01-02T10:10:11.772Z,13.16
2023-01-02T10:13:01.349Z,12.73
2023-01-02T10:15:33.089Z,12.55
2023-01-02T10:18:15.353Z,12.56
2023-01-02T10:20:56.681Z,12.78
2023-01-02T10:23:30.191Z,12.79
2023-01-02T10:26:03.683Z,12.65
2023-01-02T10:28:42.422Z,12.51
2023-01-02T10:31:15.645Z,11.99
2023-01-02T10:33:47.822Z,12.61
2023-01-02T10:36:24.683Z,12.55
2023-01-02T10:38:55.201Z,12.44
2023-01-02T10:41:23.196Z,12.60
2023-01-02T10:43:55.380Z,12.21
2023-01-02T10:46:23.410Z,12.55
2023-01-02T10:48:52.404Z,12.48
2023-01-02T10:51:22.162Z,12.46
2023-01-02T10:54:02.875Z,12.46
2023-01-02T10:56:33.342Z,12.36
2023-01-02T10:59:02.285Z,12.42
2023-01-02T11:01:31.186Z,12.28
2023-01-02T11:04:11.761Z,12.27
2023-01-02T11:06:51.868Z,12.39
2023-01-02T11:09:24.008Z,12.20
2023-01-02T11:11:54.437Z,12.22
2023-01-02T11:14:24.908Z,12.29
2023-01-02T11:16:53.146Z,12.33
2023-01-02T11:19:29.092Z,12.28
2023-01-02T11:21:57.948Z,12.07
2023-01-02T11:24:28.622Z,12.36
2023-01-02T11:26:58.416Z,12.33
2023-01-02T11:29:31.104Z,12.28
2023-01-02T11:32:02.090Z,12.41
2023-01-02T11:34:34.843Z,12.25
2023-01-02T11:37:05.246Z,11.94
2023-01-02T11:39:39.200Z,12.10
2023-01-02T11:42:40.427Z,11.93
2023-01-02T11:45:15.414Z,12.20
2023-01-02T11:47:49.589Z,12.24
2023-01-02T11:50:26.170Z,12.13
2023-01-02T11:53:00.472Z,11.62
2023-01-02T11:55:40.814Z,11.77
2023-01-02T11:58:24.595Z,11.92
2023-01-02T12:01:03.406Z,11.99
2023-01-02T12:03:35.197Z,11.86
2023-01-02T12:06:15.523Z,11.06
2023-01-02T12:08:53.647Z,11.58
2023-01-02T12:11:34.415Z,11.94
2023-01-02T12:14:14.308Z,11.95
2023-01-02T12:16:51.663Z,12.11
2023-01-02T12:20:05.874Z,12.03
2023-01-02T12:22:56.103Z,11.92
2023-01-02T12:26:08.651Z,11.94
2023-01-02T12:29:08.522Z,11.92
2023-01-02T12:31:56.566Z,11.73
2023-01-02T12:34:34.446Z,11.94
2023-01-02T12:37:17.345Z,11.96
2023-01-02T12:40:10.969Z,11.89
2023-01-02T12:42:58.483Z,11.67
2023-01-02T12:45:36.106Z,11.81
2023-01-02T12:48:23.859Z,11.76
2023-01-02T12:51:09.130Z,11.51
2023-01-02T12:54:20.230Z,11.62
2023-01-02T12:56:55.297Z,11.32
2023-01-02T12:59:48.495Z,11.10
2023-01-02T13:02:31.312Z,11.52
2023-01-02T13:05:07.519Z,11.67
2023-01-02T13:07:40.863Z,11.57
2023-01-02T13:10:17.308Z,11.61
2023-01-02T13:12:47.910Z,11.61
2023-01-02T13:15:22.283Z,11.57
2023-01-02T13:18:01.854Z,11.51
2023-01-02T13:20:41.649Z,11.39
2023-01-02T13:23:24.937Z,11.44
2023-01-02T13:25:56.872Z,11.45
2023-01-02T13:28:25.169Z,11.41
2023-01-02T13:33:56.743Z,11.39
2023-01-02T13:36:29.674Z,11.16
2023-01-02T13:39:01.814Z,11.39
2023-01-02T13:41:58.112Z,11.25
2023-01-02T13:44:36.008Z,11.63
2023-01-02T13:47:11.740Z,11.54
2023-01-02T13:49:42.855Z,11.49
2023-01-02T13:52:21.252Z,11.37
2023-01-02T13:55:31.945Z,11.37
2023-01-02T13:58:19.001Z,11.36
2023-01-02T14:00:54.411Z,11.21
2023-01-02T14:03:37.063Z,11.39
2023-01-02T14:06:29.710Z,11.31
2023-01-02T14:09:13.291Z,11.40
2023-01-02T14:11:56.259Z,11.34
2023-01-02T14:14:34.690Z,11.13
2023-01-02T14:17:12.407Z,11.24
2023-01-02T14:19:40.461Z,11.23
2023-01-02T14:22:15.399Z,11.33
2023-01-02T14:24:46.749Z,11.29
2023-01-02T14:27:23.853Z,11.24
2023-01-02T14:29:54.114Z,11.10
2023-01-02T14:32:24.682Z,11.02
2023-01-02T14:34:55.525Z,10.96
2023-01-02T14:37:38.029Z,10.97
2023-01-02T14:40:34.014Z,10.86
2023-01-02T14:43:22.328Z,10.34
2023-01-02T14:45:53.666Z,10.73
2023-01-02T14:48:30.780Z,10.78
2023-01-02T14:51:05.048Z,10.72
2023-01-02T14:53:37.841Z,10.78
2023-01-02T14:56:12.948Z,10.53
2023-01-02T14:58:43.481Z,10.38
2023-01-02T15:01:15.220Z,10.16
2023-01-02T15:04:14.209Z,10.49
2023-01-02T15:06:44.203Z,10.60
2023-01-02T15:09:27.095Z,10.58
2023-01-02T15:12:13.324Z,9.99
2023-01-02T15:14:43.133Z,10.52
2023-01-02T15:17:13.352Z,10.49
2023-01-02T15:19:42.537Z,10.58
2023-01-02T15:22:11.906Z,10.47
2023-01-02T15:24:47.858Z,10.38
2023-01-02T15:27:23.336Z,10.48
2023-01-02T15:29:53.777Z,10.39
2023-01-02T15:32:24.506Z,10.39
2023-01-02T15:34:53.000Z,10.22
2023-01-02T15:37:23.699Z,10.44
2023-01-02T15:39:56.487Z,10.36
2023-01-02T15:42:44.439Z,10.37
2023-01-02T15:45:15.298Z,10.00
2023-01-02T15:47:47.537Z,10.26
2023-01-02T15:50:20.277Z,9.99
2023-01-02T15:52:51.252Z,10.19
2023-01-02T15:55:21.712Z,10.26
2023-01-02T15:57:53.446Z,10.29
2023-01-02T16:00:37.128Z,10.31
2023-01-02T16:03:05.830Z,9.93
2023-01-02T16:05:47.522Z,10.39
2023-01-02T16:08:23.030Z,9.81
2023-01-02T16:11:01.075Z,10.43
2023-01-02T16:14:01.346Z,10.34
2023-01-02T16:16:42.349Z,10.37
2023-01-02T16:19:25.064Z,10.14
2023-01-02T16:22:04.286Z,10.20
2023-01-02T16:24:34.534Z,10.29
2023-01-02T16:27:06.922Z,10.06
2023-01-02T16:29:35.021Z,10.15
2023-01-02T16:32:03.573Z,10.06
2023-01-02T16:34:37.992Z,10.09
2023-01-02T16:37:34.136Z,10.15
2023-01-02T16:40:59.903Z,10.07
2023-01-02T16:43:38.038Z,10.01
2023-01-02T16:46:14.874Z,9.97
2023-01-02T16:48:43.810Z,10.07
2023-01-02T16:51:15.057Z,10.14
2023-01-02T16:53:45.848Z,9.64
2023-01-02T16:56:15.062Z,10.16
2023-01-02T16:58:44.330Z,10.11
2023-01-02T17:01:14.271Z,9.73
2023-01-02T17:03:43.142Z,9.93
2023-01-02T17:06:13.976Z,10.09
2023-01-02T17:08:42.696Z,9.91
2023-01-02T17:11:13.783Z,9.61
2023-01-02T17:13:41.697Z,9.76
2023-01-02T17:16:11.340Z,9.68
2023-01-02T17:18:39.241Z,9.80
2023-01-02T17:21:07.558Z,9.79
2023-01-02T17:23:35.479Z,9.89
2023-01-02T17:26:03.888Z,9.90
2023-01-02T17:28:31.769Z,9.81
2023-01-02T17:30:59.593Z,9.90
2023-01-02T17:33:28.868Z,10.08
2023-01-02T17:35:58.160Z,9.93
2023-01-02T17:38:26.375Z,10.02
2023-01-02T17:40:58.131Z,9.96
2023-01-02T17:43:26.584Z,8.52
2023-01-02T17:45:54.544Z,9.46
2023-01-02T17:48:24.997Z,9.90
2023-01-02T17:50:54.943Z,9.82
2023-01-02T17:53:22.843Z,9.81
2023-01-02T17:56:21.101Z,9.79
2023-01-02T17:58:43.068Z,9.73
2023-01-02T18:01:16.052Z,9.53
2023-01-02T18:03:44.373Z,9.65
2023-01-02T18:06:13.652Z,9.67
2023-01-02T18:08:41.548Z,9.62
2023-01-02T18:11:11.926Z,7.75
2023-01-02T18:13:43.566Z,9.48
2023-01-02T18:16:16.523Z,9.65
2023-01-02T18:18:46.078Z,9.42
2023-01-02T18:21:17.788Z,9.11
2023-01-02T18:23:50.184Z,9.43
2023-01-02T18:26:20.141Z,9.57
2023-01-02T18:28:56.898Z,9.60
2023-01-02T18:31:26.421Z,9.54
2023-01-02T18:33:58.364Z,9.61
2023-01-02T18:36:28.322Z,9.77
2023-01-02T18:39:11.395Z,9.52
2023-01-02T18:41:41.586Z,9.41
2023-01-02T18:44:20.462Z,9.59
2023-01-02T18:47:03.646Z,9.57
2023-01-02T18:49:41.535Z,9.43
2023-01-02T18:52:27.245Z,9.19
2023-01-02T18:54:59.913Z,9.42
2023-01-02T18:57:32.994Z,9.26
2023-01-02T19:00:14.816Z,9.08
2023-01-02T19:02:53.296Z,9.40
2023-01-02T19:05:25.439Z,9.40
2023-01-02T19:08:01.255Z,9.28
2023-01-02T19:10:37.293Z,9.54
2023-01-02T19:13:08.122Z,9.27
2023-01-02T19:15:40.613Z,9.43
2023-01-02T19:18:28.225Z,9.27
2023-01-02T19:21:00.089Z,8.98
2023-01-02T19:23:31.816Z,9.27
2023-01-02T19:26:13.442Z,8.73
2023-01-02T19:28:51.648Z,9.53
2023-01-02T19:31:19.575Z,9.43
2023-01-02T19:33:52.786Z,9.50
2023-01-02T19:36:25.599Z,9.27
2023-01-02T19:38:54.817Z,9.31
2023-01-02T19:41:43.208Z,9.21
2023-01-02T19:44:11.390Z,8.96
2023-01-02T19:46:39.384Z,9.06
2023-01-02T19:49:07.257Z,9.27
2023-01-02T19:51:35.328Z,9.27
2023-01-02T19:54:05.891Z,9.36
2023-01-02T19:56:33.952Z,8.99
2023-01-02T19:59:01.952Z,9.27
2023-01-02T20:01:30.531Z,9.10
2023-01-02T20:03:58.455Z,9.02
2023-01-02T20:06:27.928Z,9.02
2023-01-02T20:08:55.984Z,8.93
2023-01-02T20:11:42.995Z,8.91
2023-01-02T20:14:11.712Z,8.79
2023-01-02T20:16:39.913Z,9.02
2023-01-02T20:19:07.814Z,8.97
2023-01-02T20:21:35.649Z,8.89
2023-01-02T20:24:03.477Z,8.60
2023-01-02T20:26:32.711Z,8.79
2023-01-02T20:29:00.691Z,8.86
2023-01-02T20:31:28.820Z,8.78
2023-01-02T20:33:56.760Z,8.63
2023-01-02T20:36:24.829Z,8.56
2023-01-02T20:38:53.081Z,8.45
2023-01-02T20:41:21.070Z,8.57
2023-01-02T20:43:50.399Z,8.36
2023-01-02T20:46:18.392Z,8.74
2023-01-02T20:48:46.516Z,8.58
2023-01-02T20:51:14.867Z,8.48
2023-01-02T20:53:42.841Z,8.58
2023-01-02T20:56:10.934Z,8.53
2023-01-02T20:58:38.813Z,8.48
2023-01-02T21:01:08.232Z,8.82
2023-01-02T21:03:36.382Z,8.58
2023-01-02T21:06:04.365Z,8.80
2023-01-02T21:08:32.263Z,8.81
2023-01-02T21:11:00.141Z,8.78
2023-01-02T21:13:27.991Z,8.87
2023-01-02T21:15:58.012Z,8.61
2023-01-02T21:18:29.987Z,8.87
2023-01-02T21:21:01.075Z,8.90
2023-01-02T21:23:30.986Z,8.82
2023-01-02T21:25:59.374Z,8.85
2023-01-02T21:28:27.403Z,8.60
2023-01-02T21:30:55.942Z,8.90
2023-01-02T21:33:25.694Z,8.87
2023-01-02T21:35:56.790Z,8.97
2023-01-02T21:38:26.489Z,8.77
2023-01-02T21:40:55.363Z,8.71
2023-01-02T21:43:24.029Z,8.69
2023-01-02T21:45:52.249Z,8.59
2023-01-02T21:48:20.201Z,8.50
2023-01-02T21:50:48.310Z,8.76
2023-01-02T21:53:17.512Z,8.61
2023-01-02T21:55:46.483Z,8.73
2023-01-02T21:58:15.092Z,8.57
2023-01-02T22:00:43.846Z,8.52
2023-01-02T22:03:11.926Z,8.83
2023-01-02T22:05:39.980Z,8.68
2023-01-02T22:08:08.086Z,8.67
2023-01-02T22:10:37.392Z,8.22
2023-01-02T22:13:05.293Z,8.63
2023-01-02T22:15:33.182Z,8.76
2023-01-02T22:18:01.224Z,8.04
2023-01-02T22:20:29.084Z,8.53
2023-01-02T22:22:57.140Z,8.28
2023-01-02T22:25:25.082Z,7.89
2023-01-02T22:27:54.611Z,8.44
2023-01-02T22:30:29.348Z,8.52
2023-01-02T22:33:01.375Z,8.51
2023-01-02T22:35:29.316Z,8.59
2023-01-02T22:37:59.515Z,8.46
2023-01-02T22:40:28.672Z,8.65
2023-01-02T22:43:00.900Z,8.58
2023-01-02T22:45:34.398Z,8.10
2023-01-02T22:48:07.074Z,8.44
2023-01-02T22:50:42.395Z,8.35
2023-01-02T22:53:18.892Z,8.03
2023-01-02T22:55:47.040Z,8.38
2023-01-02T22:58:16.542Z,8.34
2023-01-02T23:00:45.381Z,8.43
2023-01-02T23:03:14.410Z,8.21
2023-01-02T23:05:43.214Z,8.32
2023-01-02T23:08:11.228Z,8.33
2023-01-02T23:10:39.333Z,8.36
2023-01-02T23:13:07.232Z,8.21
2023-01-02T23:15:56.505Z,8.33
2023-01-02T23:18:42.367Z,8.34
2023-01-02T23:21:10.957Z,8.38
2023-01-02T23:23:38.713Z,8.10
2023-01-02T23:26:07.591Z,8.25
2023-01-02T23:31:25.463Z,8.24
2023-01-02T23:33:53.388Z,8.14
2023-01-02T23:36:21.731Z,8.18
2023-01-02T23:38:50.017Z,7.80
2023-01-02T23:41:17.856Z,8.09
2023-01-02T23:43:45.793Z,8.09
2023-01-02T23:46:13.703Z,8.05
2023-01-02T23:48:42.900Z,7.93
2023-01-02T23:51:10.901Z,8.14
2023-01-02T23:53:38.880Z,8.17
2023-01-02T23:56:17.477Z,7.47
2023-01-02T23:58:45.682Z,7.55
